Time,TemperatureF,DewpointF,PressureIn,WindDirection,WindDirectionDegrees,WindSpeedMPH,WindSpeedGustMPH,Humidity,HourlyPrecipIn,Conditions,Clouds,dailyrainin,SoftwareType,DateUTC
2013-08-19 00:03:00,71.0,59.0,29.70,NE,47,0.0,1.0,65,0.00,,,0.00,weatherlink.com 1.10,2013-08-19 07:03:00,
2013-08-19 00:18:00,70.3,58.0,29.70,NE,47,2.0,2.0,66,0.00,,,0.00,weatherlink.com 1.10,2013-08-19 07:18:00,
2013-08-19 00:33:00,69.9,58.0,29.69,NE,53,1.0,2.0,67,0.00,,,0.00,weatherlink.com 1.10,2013-08-19 07:33:00,
2013-08-19 00:48:00,69.3,58.0,29.69,NNE,32,1.0,4.0,68,0.00,,,0.00,weatherlink.com 1.10,2013-08-19 07:48:00,
2013-08-19 01:03:00,68.9,58.0,29.69,NE,34,3.0,3.0,69,0.00,,,0.00,weatherlink.com 1.10,2013-08-19 08:03:00,
2013-08-19 01:18:00,68.8,58.0,29.70,NE,38,0.0,4.0,69,0.00,,,0.00,weatherlink.com 1.10,2013-08-19 08:18:00,
2013-08-19 01:33:00,68.4,59.0,29.70,NE,38,0.0,0.0,71,0.00,,,0.00,weatherlink.com 1.10,2013-08-19 08:33:00,
2013-08-19 01:48:00,68.0,58.0,29.70,NE,54,1.0,2.0,71,0.00,,,0.00,weatherlink.com 1.10,2013-08-19 08:48:00,
2013-08-19 02:03:00,67.8,58.0,29.69,ENE,71,0.0,3.0,71,0.00,,,0.00,weatherlink.com 1.10,2013-08-19 09:03:00,
2013-08-19 02:18:00,67.5,58.0,29.69,ENE,73,2.0,3.0,72,0.00,,,0.00,weatherlink.com 1.10,2013-08-19 09:18:00,
2013-08-19 02:33:00,67.3,58.0,29.68,NE,51,1.0,2.0,73,0.00,,,0.00,weatherlink.com 1.10,2013-08-19 09:33:00,
2013-08-19 02:48:00,67.1,58.0,29.67,ENE,57,2.0,4.0,72,0.00,,,0.00,weatherlink.com 1.10,2013-08-19 09:48:00,
2013-08-19 03:03:00,67.4,58.0,29.68,NE,36,0.0,4.0,71,0.00,,,0.00,weatherlink.com 1.10,2013-08-19 10:03:00,
2013-08-19 03:18:00,66.9,58.0,29.68,SW,214,1.0,2.0,73,0.00,,,0.00,weatherlink.com 1.10,2013-08-19 10:18:00,
2013-08-19 03:33:00,66.3,57.0,29.68,ENE,61,0.0,2.0,72,0.00,,,0.00,weatherlink.com 1.10,2013-08-19 10:33:00,
2013-08-19 03:48:00,66.3,57.0,29.68,ENE,61,0.0,2.0,73,0.00,,,0.00,weatherlink.com 1.10,2013-08-19 10:48:00,
2013-08-19 04:03:00,66.3,58.0,29.68,ENE,62,0.0,4.0,74,0.00,,,0.00,weatherlink.com 1.10,2013-08-19 11:03:00,
2013-08-19 04:18:00,65.9,58.0,29.68,ENE,60,0.0,2.0,75,0.00,,,0.00,weatherlink.com 1.10,2013-08-19 11:18:00,
2013-08-19 04:33:00,65.5,57.0,29.68,ENE,60,0.0,1.0,75,0.00,,,0.00,weatherlink.com 1.10,2013-08-19 11:33:00,
2013-08-19 04:48:00,65.3,58.0,29.69,ENE,60,0.0,2.0,76,0.00,,,0.00,weatherlink.com 1.10,2013-08-19 11:48:00,
2013-08-19 05:03:00,65.0,57.0,29.69,ENE,60,0.0,0.0,76,0.00,,,0.00,weatherlink.com 1.10,2013-08-19 12:03:00,
2013-08-19 05:18:00,64.8,57.0,29.70,NE,42,1.0,3.0,77,0.00,,,0.00,weatherlink.com 1.10,2013-08-19 12:18:00,
2013-08-19 05:33:00,64.6,58.0,29.70,NE,42,0.0,0.0,78,0.00,,,0.00,weatherlink.com 1.10,2013-08-19 12:33:00,
2013-08-19 05:48:00,64.5,57.0,29.70,ENE,58,0.0,2.0,77,0.00,,,0.00,weatherlink.com 1.10,2013-08-19 12:48:00,
2013-08-19 06:03:00,64.4,57.0,29.71,NE,42,1.0,2.0,77,0.00,,,0.00,weatherlink.com 1.10,2013-08-19 13:03:00,
2013-08-19 06:18:00,64.4,57.0,29.71,NE,36,1.0,3.0,77,0.00,,,0.00,weatherlink.com 1.10,2013-08-19 13:18:00,
2013-08-19 06:33:00,64.2,57.0,29.71,NE,36,0.0,1.0,78,0.00,,,0.00,weatherlink.com 1.10,2013-08-19 13:33:00,
2013-08-19 06:48:00,64.3,57.0,29.72,ENE,69,0.0,3.0,78,0.00,,,0.00,weatherlink.com 1.10,2013-08-19 13:48:00,
2013-08-19 07:04:00,64.7,57.0,29.72,ENE,67,0.0,3.0,77,0.00,,,0.00,weatherlink.com 1.10,2013-08-19 14:04:00,
2013-08-19 07:19:00,65.3,58.0,29.72,ENE,67,0.0,1.0,76,0.00,,,0.00,weatherlink.com 1.10,2013-08-19 14:19:00,
2013-08-19 07:34:00,65.9,59.0,29.73,ENE,61,0.0,1.0,78,0.00,,,0.00,weatherlink.com 1.10,2013-08-19 14:34:00,
2013-08-19 07:49:00,66.8,59.0,29.74,SE,133,0.0,2.0,75,0.00,,,0.00,weatherlink.com 1.10,2013-08-19 14:49:00,
2013-08-19 08:04:00,67.5,59.0,29.74,SE,133,1.0,2.0,73,0.00,,,0.00,weatherlink.com 1.10,2013-08-19 15:04:00,
2013-08-19 08:19:00,68.5,60.0,29.75,SE,133,1.0,2.0,74,0.00,,,0.00,weatherlink.com 1.10,2013-08-19 15:19:00,
2013-08-19 08:34:00,69.5,60.0,29.75,South,170,1.0,3.0,71,0.00,,,0.00,weatherlink.com 1.10,2013-08-19 15:34:00,
2013-08-19 09:04:00,73.0,60.0,29.75,WSW,254,0.0,2.0,64,0.00,,,0.00,weatherlink.com 1.10,2013-08-19 16:04:00,
2013-08-19 09:19:00,74.9,61.0,29.75,WSW,253,0.0,2.0,62,0.00,,,0.00,weatherlink.com 1.10,2013-08-19 16:19:00,
2013-08-19 09:34:00,77.3,61.0,29.75,WSW,248,2.0,3.0,57,0.00,,,0.00,weatherlink.com 1.10,2013-08-19 16:34:00,
2013-08-19 09:49:00,79.1,60.0,29.75,SW,233,1.0,3.0,52,0.00,,,0.00,weatherlink.com 1.10,2013-08-19 16:49:00,
2013-08-19 10:04:00,81.2,61.0,29.75,SW,233,1.0,2.0,50,0.00,,,0.00,weatherlink.com 1.10,2013-08-19 17:04:00,
2013-08-19 10:19:00,83.6,60.0,29.75,West,260,1.0,4.0,45,0.00,,,0.00,weatherlink.com 1.10,2013-08-19 17:19:00,
2013-08-19 10:34:00,85.1,61.0,29.75,West,278,1.0,3.0,44,0.00,,,0.00,weatherlink.com 1.10,2013-08-19 17:34:00,
2013-08-19 10:49:00,86.6,61.0,29.75,SW,236,4.0,6.0,42,0.00,,,0.00,weatherlink.com 1.10,2013-08-19 17:49:00,
2013-08-19 11:04:00,87.8,61.0,29.75,West,269,1.0,5.0,40,0.00,,,0.00,weatherlink.com 1.10,2013-08-19 18:04:00,
2013-08-19 11:19:00,89.4,61.0,29.75,NW,313,1.0,4.0,38,0.00,,,0.00,weatherlink.com 1.10,2013-08-19 18:19:00,
2013-08-19 11:34:00,90.4,62.0,29.75,NW,322,3.0,5.0,39,0.00,,,0.00,weatherlink.com 1.10,2013-08-19 18:34:00,
2013-08-19 11:49:00,91.2,61.0,29.74,WNW,303,7.0,7.0,36,0.00,,,0.00,weatherlink.com 1.10,2013-08-19 18:49:00,
2013-08-19 12:05:00,91.7,60.0,29.74,SW,229,6.0,8.0,34,0.00,,,0.00,weatherlink.com 1.10,2013-08-19 19:05:00,
2013-08-19 12:20:00,92.0,62.0,29.73,WNW,302,2.0,4.0,37,0.00,,,0.00,weatherlink.com 1.10,2013-08-19 19:20:00,
2013-08-19 12:35:00,92.4,59.0,29.73,WNW,294,2.0,6.0,33,0.00,,,0.00,weatherlink.com 1.10,2013-08-19 19:35:00,
2013-08-19 12:50:00,93.7,60.0,29.73,SW,228,3.0,6.0,32,0.00,,,0.00,weatherlink.com 1.10,2013-08-19 19:50:00,
2013-08-19 13:05:00,94.8,61.0,29.72,West,271,2.0,8.0,32,0.00,,,0.00,weatherlink.com 1.10,2013-08-19 20:05:00,
2013-08-19 13:20:00,94.9,60.0,29.71,WNW,300,2.0,6.0,31,0.00,,,0.00,weatherlink.com 1.10,2013-08-19 20:20:00,
2013-08-19 13:35:00,95.3,60.0,29.71,WNW,297,7.0,8.0,31,0.00,,,0.00,weatherlink.com 1.10,2013-08-19 20:35:00,
2013-08-19 13:50:00,95.6,61.0,29.71,WNW,283,2.0,8.0,32,0.00,,,0.00,weatherlink.com 1.10,2013-08-19 20:50:00,
2013-08-19 14:05:00,95.7,60.0,29.70,SW,228,7.0,9.0,30,0.00,,,0.00,weatherlink.com 1.10,2013-08-19 21:05:00,
2013-08-19 14:20:00,96.2,60.0,29.70,SSW,208,2.0,10.0,30,0.00,,,0.00,weatherlink.com 1.10,2013-08-19 21:20:00,
2013-08-19 14:35:00,97.0,61.0,29.70,SW,220,3.0,9.0,30,0.00,,,0.00,weatherlink.com 1.10,2013-08-19 21:35:00,
2013-08-19 14:50:00,97.5,61.0,29.70,NW,313,2.0,11.0,30,0.00,,,0.00,weatherlink.com 1.10,2013-08-19 21:50:00,
2013-08-19 15:05:00,98.0,59.0,29.69,SW,227,3.0,8.0,27,0.00,,,0.00,weatherlink.com 1.10,2013-08-19 22:05:00,
2013-08-19 15:20:00,97.8,59.0,29.69,NW,315,2.0,10.0,27,0.00,,,0.00,weatherlink.com 1.10,2013-08-19 22:20:00,
2013-08-19 15:35:00,97.3,58.0,29.68,West,275,6.0,12.0,27,0.00,,,0.00,weatherlink.com 1.10,2013-08-19 22:35:00,
2013-08-19 15:50:00,96.5,61.0,29.68,West,266,3.0,9.0,31,0.00,,,0.00,weatherlink.com 1.10,2013-08-19 22:50:00,
2013-08-19 16:05:00,95.9,59.0,29.67,WNW,292,1.0,14.0,29,0.00,,,0.00,weatherlink.com 1.10,2013-08-19 23:05:00,
2013-08-19 16:20:00,95.2,57.0,29.67,WSW,248,7.0,11.0,28,0.00,,,0.00,weatherlink.com 1.10,2013-08-19 23:20:00,
2013-08-19 16:35:00,94.5,58.0,29.67,SW,234,5.0,11.0,29,0.00,,,0.00,weatherlink.com 1.10,2013-08-19 23:35:00,
2013-08-19 16:50:00,93.1,56.0,29.67,WSW,242,5.0,14.0,29,0.00,,,0.00,weatherlink.com 1.10,2013-08-19 23:50:00,
2013-08-19 17:05:00,92.3,57.0,29.67,SSW,209,2.0,10.0,30,0.00,,,0.00,weatherlink.com 1.10,2013-08-20 00:05:00,
2013-08-19 17:20:00,91.0,56.0,29.67,SSW,200,1.0,12.0,31,0.00,,,0.00,weatherlink.com 1.10,2013-08-20 00:20:00,
2013-08-19 17:35:00,90.3,58.0,29.67,South,181,8.0,10.0,33,0.00,,,0.00,weatherlink.com 1.10,2013-08-20 00:35:00,
2013-08-19 17:50:00,88.5,57.0,29.67,NW,312,3.0,12.0,34,0.00,,,0.00,weatherlink.com 1.10,2013-08-20 00:50:00,
2013-08-19 18:05:00,86.2,56.0,29.67,SW,227,5.0,9.0,36,0.00,,,0.00,weatherlink.com 1.10,2013-08-20 01:05:00,
2013-08-19 18:20:00,85.0,54.0,29.68,SW,220,5.0,11.0,35,0.00,,,0.00,weatherlink.com 1.10,2013-08-20 01:20:00,
2013-08-19 18:35:00,83.1,53.0,29.68,West,259,4.0,14.0,36,0.00,,,0.00,weatherlink.com 1.10,2013-08-20 01:35:00,
2013-08-19 18:50:00,81.5,53.0,29.68,SW,223,4.0,14.0,38,0.00,,,0.00,weatherlink.com 1.10,2013-08-20 01:50:00,
2013-08-19 19:05:00,79.8,51.0,29.69,SSW,202,5.0,13.0,37,0.00,,,0.00,weatherlink.com 1.10,2013-08-20 02:05:00,
2013-08-19 19:20:00,78.4,50.0,29.69,WSW,248,7.0,12.0,37,0.00,,,0.00,weatherlink.com 1.10,2013-08-20 02:20:00,
2013-08-19 19:35:00,76.9,49.0,29.69,SW,215,3.0,10.0,38,0.00,,,0.00,weatherlink.com 1.10,2013-08-20 02:35:00,
2013-08-19 19:50:00,76.0,49.0,29.69,WSW,237,9.0,11.0,38,0.00,,,0.00,weatherlink.com 1.10,2013-08-20 02:50:00,
2013-08-19 20:05:00,75.3,48.0,29.70,SSW,211,3.0,12.0,38,0.00,,,0.00,weatherlink.com 1.10,2013-08-20 03:05:00,
2013-08-19 20:20:00,74.8,47.0,29.70,SW,230,3.0,10.0,38,0.00,,,0.00,weatherlink.com 1.10,2013-08-20 03:20:00,
2013-08-19 20:35:00,74.1,49.0,29.70,WNW,289,3.0,7.0,41,0.00,,,0.00,weatherlink.com 1.10,2013-08-20 03:35:00,
2013-08-19 20:50:00,73.4,51.0,29.71,NW,313,4.0,8.0,45,0.00,,,0.00,weatherlink.com 1.10,2013-08-20 03:50:00,
2013-08-19 21:05:00,72.1,51.0,29.72,WNW,286,2.0,10.0,48,0.00,,,0.00,weatherlink.com 1.10,2013-08-20 04:05:00,
2013-08-19 21:20:00,70.9,52.0,29.72,NW,307,5.0,12.0,52,0.00,,,0.00,weatherlink.com 1.10,2013-08-20 04:20:00,
2013-08-19 21:35:00,69.6,54.0,29.73,NW,313,5.0,13.0,57,0.00,,,0.00,weatherlink.com 1.10,2013-08-20 04:35:00,
2013-08-19 21:50:00,68.7,54.0,29.74,SW,232,1.0,6.0,60,0.00,,,0.00,weatherlink.com 1.10,2013-08-20 04:50:00,
2013-08-19 22:05:00,68.1,55.0,29.74,WNW,302,1.0,4.0,64,0.00,,,0.00,weatherlink.com 1.10,2013-08-20 05:05:00,
2013-08-19 22:20:00,68.1,54.0,29.75,NE,36,1.0,4.0,62,0.00,,,0.00,weatherlink.com 1.10,2013-08-20 05:20:00,
2013-08-19 22:35:00,68.1,54.0,29.75,NW,319,3.0,5.0,62,0.00,,,0.00,weatherlink.com 1.10,2013-08-20 05:35:00,
2013-08-19 22:50:00,68.0,55.0,29.76,WNW,300,2.0,6.0,63,0.00,,,0.00,weatherlink.com 1.10,2013-08-20 05:50:00,
2013-08-19 23:05:00,68.0,55.0,29.77,NW,314,1.0,2.0,63,0.00,,,0.00,weatherlink.com 1.10,2013-08-20 06:05:00,
2013-08-19 23:20:00,68.0,56.0,29.76,SSW,196,0.0,3.0,65,0.00,,,0.00,weatherlink.com 1.10,2013-08-20 06:20:00,
2013-08-19 23:35:00,68.4,57.0,29.75,SSW,196,0.0,0.0,66,0.00,,,0.00,weatherlink.com 1.10,2013-08-20 06:35:00,
2013-08-19 23:50:00,68.5,57.0,29.74,NW,325,3.0,3.0,67,0.00,,,0.00,weatherlink.com 1.10,2013-08-20 06:50:00,